createdAt,value
2023-08-07T00:01:11.137Z,13.33
2023-08-07T00:03:37.557Z,13.33
2023-08-07T00:06:03.987Z,13.33
2023-08-07T00:08:31.663Z,13.43
2023-08-07T00:11:08.356Z,13.44
2023-08-07T00:13:34.890Z,13.51
2023-08-07T00:16:01.372Z,13.52
2023-08-07T00:18:29.713Z,13.56
2023-08-07T00:20:56.281Z,13.53
2023-08-07T00:23:22.651Z,13.60
2023-08-07T00:25:49.009Z,13.60
2023-08-07T00:28:15.382Z,13.57
2023-08-07T00:30:41.745Z,13.57
2023-08-07T00:33:08.144Z,13.61
2023-08-07T00:35:34.507Z,13.61
2023-08-07T00:38:00.919Z,13.61
2023-08-07T00:40:27.280Z,13.56
2023-08-07T00:42:53.650Z,13.64
2023-08-07T00:45:20.067Z,13.62
2023-08-07T00:47:46.553Z,13.62
2023-08-07T00:50:13.299Z,13.65
2023-08-07T00:52:39.803Z,13.62
2023-08-07T00:55:06.536Z,13.58
2023-08-07T00:57:33.546Z,13.66
2023-08-07T01:00:00.360Z,13.58
2023-08-07T01:02:26.874Z,13.59
2023-08-07T01:04:53.796Z,13.55
2023-08-07T01:07:20.437Z,13.57
2023-08-07T01:09:47.069Z,13.58
2023-08-07T01:12:19.844Z,13.54
2023-08-07T01:15:10.945Z,13.51
2023-08-07T01:17:38.266Z,13.51
2023-08-07T01:20:05.388Z,13.45
2023-08-07T01:22:31.799Z,13.43
2023-08-07T01:24:58.180Z,13.46
2023-08-07T01:27:38.646Z,13.43
2023-08-07T01:30:11.357Z,13.43
2023-08-07T01:32:38.004Z,13.47
2023-08-07T01:35:07.110Z,13.43
2023-08-07T01:37:37.663Z,13.44
2023-08-07T01:40:06.433Z,13.47
2023-08-07T01:42:33.473Z,13.47
2023-08-07T01:44:59.879Z,13.57
2023-08-07T01:47:26.366Z,13.56
2023-08-07T01:49:52.910Z,13.55
2023-08-07T01:52:19.716Z,13.64
2023-08-07T01:54:46.187Z,13.53
2023-08-07T01:57:12.629Z,13.52
2023-08-07T01:59:39.356Z,13.51
2023-08-07T02:02:05.889Z,13.49
2023-08-07T02:04:32.369Z,13.47
2023-08-07T02:06:58.746Z,13.45
2023-08-07T02:09:25.125Z,13.37
2023-08-07T02:11:51.484Z,13.38
2023-08-07T02:14:18.278Z,13.32
2023-08-07T02:16:44.736Z,13.32
2023-08-07T02:19:11.147Z,13.32
2023-08-07T02:21:37.576Z,13.36
2023-08-07T02:24:04.161Z,13.35
2023-08-07T02:26:30.490Z,13.32
2023-08-07T02:28:56.869Z,13.25
2023-08-07T02:31:23.289Z,13.24
2023-08-07T02:33:49.798Z,13.20
2023-08-07T02:36:16.156Z,13.17
2023-08-07T02:38:42.582Z,13.20
2023-08-07T02:41:08.942Z,13.15
2023-08-07T02:43:35.491Z,13.21
2023-08-07T02:46:01.885Z,13.16
2023-08-07T02:48:28.254Z,13.22
2023-08-07T02:50:54.673Z,13.26
2023-08-07T02:53:21.060Z,13.21
2023-08-07T02:55:47.436Z,13.23
2023-08-07T02:58:13.882Z,13.22
2023-08-07T03:00:40.250Z,13.25
2023-08-07T03:03:06.621Z,13.27
2023-08-07T03:05:33.099Z,13.20
2023-08-07T03:07:59.506Z,13.14
2023-08-07T03:10:26.956Z,13.11
2023-08-07T03:12:53.520Z,13.12
2023-08-07T03:15:19.859Z,13.21
2023-08-07T03:17:46.242Z,13.13
2023-08-07T03:20:12.972Z,13.12
2023-08-07T03:22:39.404Z,13.12
2023-08-07T03:25:06.285Z,13.14
2023-08-07T03:27:32.674Z,13.20
2023-08-07T03:29:59.069Z,13.17
2023-08-07T03:32:25.481Z,13.19
2023-08-07T03:34:51.973Z,13.21
2023-08-07T03:37:18.317Z,13.21
2023-08-07T03:39:48.892Z,13.23
2023-08-07T03:42:18.285Z,13.33
2023-08-07T03:44:44.734Z,13.33
2023-08-07T03:47:11.175Z,13.36
2023-08-07T03:49:37.631Z,13.44
2023-08-07T03:52:04.355Z,13.45
2023-08-07T03:54:30.786Z,13.49
2023-08-07T03:56:57.353Z,13.49
2023-08-07T03:59:24.140Z,13.52
2023-08-07T04:01:50.533Z,13.48
2023-08-07T04:04:16.872Z,13.45
2023-08-07T04:06:44.880Z,13.39
2023-08-07T04:09:11.350Z,13.38
2023-08-07T04:11:37.968Z,13.34
2023-08-07T04:14:04.985Z,13.26
2023-08-07T04:16:32.332Z,13.29
2023-08-07T04:18:58.765Z,13.25
2023-08-07T04:21:25.203Z,13.20
2023-08-07T04:23:51.608Z,13.15
2023-08-07T04:26:18.014Z,13.13
2023-08-07T04:28:44.373Z,13.08
2023-08-07T04:31:10.764Z,13.10
2023-08-07T04:33:37.318Z,13.02
2023-08-07T04:36:03.994Z,13.05
2023-08-07T04:38:30.428Z,13.15
2023-08-07T04:40:56.852Z,13.24
2023-08-07T04:43:23.332Z,13.22
2023-08-07T04:45:50.120Z,13.21
2023-08-07T04:48:16.835Z,13.25
2023-08-07T04:50:43.219Z,13.33
2023-08-07T04:53:09.854Z,13.35
2023-08-07T04:55:36.900Z,13.37
2023-08-07T04:58:03.438Z,13.36
2023-08-07T05:00:30.292Z,13.44
2023-08-07T05:02:56.980Z,13.37
2023-08-07T05:05:24.329Z,13.39
2023-08-07T05:07:50.994Z,13.41
2023-08-07T05:10:17.460Z,13.43
2023-08-07T05:12:43.847Z,13.47
2023-08-07T05:15:10.546Z,13.52
2023-08-07T05:17:37.088Z,13.54
2023-08-07T05:20:03.789Z,13.60
2023-08-07T05:22:30.497Z,13.64
2023-08-07T05:24:56.837Z,13.63
2023-08-07T05:27:23.149Z,13.69
2023-08-07T05:29:49.576Z,13.63
2023-08-07T05:32:15.962Z,13.69
2023-08-07T05:34:42.716Z,13.67
2023-08-07T05:37:11.510Z,13.68
2023-08-07T05:39:37.891Z,13.60
2023-08-07T05:42:04.599Z,13.67
2023-08-07T05:44:31.022Z,13.66
2023-08-07T05:46:57.394Z,13.66
2023-08-07T05:49:25.895Z,13.61
2023-08-07T05:51:53.092Z,13.67
2023-08-07T05:54:19.497Z,13.66
2023-08-07T05:56:48.148Z,13.71
2023-08-07T05:59:14.663Z,13.75
2023-08-07T06:01:42.069Z,13.86
2023-08-07T06:04:09.898Z,13.90
2023-08-07T06:06:36.855Z,13.84
2023-08-07T06:09:07.384Z,13.88
2023-08-07T06:11:33.865Z,13.89
2023-08-07T06:14:00.244Z,13.86
2023-08-07T06:16:27.083Z,13.88
2023-08-07T06:18:53.544Z,13.89
2023-08-07T06:21:21.304Z,13.85
2023-08-07T06:23:48.043Z,13.97
2023-08-07T06:26:14.565Z,14.01
2023-08-07T06:28:40.926Z,14.06
2023-08-07T06:31:08.892Z,14.01
2023-08-07T06:33:35.303Z,14.05
2023-08-07T06:36:02.566Z,14.18
2023-08-07T06:38:29.087Z,14.18
2023-08-07T06:40:55.540Z,14.29
2023-08-07T06:43:22.334Z,14.21
2023-08-07T06:45:52.423Z,14.32
2023-08-07T06:48:19.374Z,14.48
2023-08-07T06:50:47.799Z,14.57
2023-08-07T06:53:14.188Z,14.50
2023-08-07T06:55:42.457Z,14.55
2023-08-07T06:58:09.140Z,14.68
2023-08-07T07:00:36.506Z,14.69
2023-08-07T07:03:03.644Z,14.62
2023-08-07T07:05:31.381Z,14.76
2023-08-07T07:07:58.669Z,14.94
2023-08-07T07:10:25.031Z,15.00
2023-08-07T07:12:51.407Z,15.02
2023-08-07T07:15:17.858Z,15.00
2023-08-07T07:17:44.231Z,15.14
2023-08-07T07:20:12.049Z,14.98
2023-08-07T07:22:38.383Z,14.87
2023-08-07T07:25:05.302Z,14.80
2023-08-07T07:27:31.636Z,14.84
2023-08-07T07:29:58.049Z,14.88
2023-08-07T07:32:25.322Z,14.99
2023-08-07T07:34:51.716Z,15.09
2023-08-07T07:37:18.147Z,15.29
2023-08-07T07:39:44.806Z,15.17
2023-08-07T07:42:12.214Z,15.13
2023-08-07T07:44:39.772Z,15.19
2023-08-07T07:47:06.745Z,15.04
2023-08-07T07:49:34.102Z,15.24
2023-08-07T07:52:01.065Z,15.15
2023-08-07T07:54:29.337Z,15.25
2023-08-07T07:56:55.872Z,15.40
2023-08-07T07:59:22.434Z,15.42
2023-08-07T08:01:48.826Z,15.26
2023-08-07T08:04:15.588Z,15.40
2023-08-07T08:06:42.132Z,15.45
2023-08-07T08:09:10.699Z,15.34
2023-08-07T08:11:37.053Z,15.43
2023-08-07T08:14:03.407Z,15.45
2023-08-07T08:16:29.754Z,15.53
2023-08-07T08:18:56.141Z,15.59
2023-08-07T08:21:22.507Z,15.47
2023-08-07T08:23:48.877Z,15.58
2023-08-07T08:26:15.256Z,15.84
2023-08-07T08:28:41.585Z,15.98
2023-08-07T08:31:08.036Z,16.15
2023-08-07T08:33:34.432Z,16.28
2023-08-07T08:36:00.755Z,16.74
2023-08-07T08:38:33.600Z,16.85
2023-08-07T08:41:03.589Z,16.95
2023-08-07T08:43:35.193Z,16.67
2023-08-07T08:46:02.394Z,16.60
2023-08-07T08:48:32.452Z,16.10
2023-08-07T08:50:59.694Z,15.98
2023-08-07T08:53:26.503Z,15.91
2023-08-07T08:55:53.341Z,15.90
2023-08-07T08:58:21.148Z,15.72
2023-08-07T09:00:48.714Z,15.72
2023-08-07T09:03:15.295Z,15.67
2023-08-07T09:05:42.758Z,15.59
2023-08-07T09:08:10.430Z,15.53
2023-08-07T09:10:37.953Z,15.52
2023-08-07T09:13:06.588Z,15.52
2023-08-07T09:15:34.129Z,15.45
2023-08-07T09:18:01.956Z,15.41
2023-08-07T09:20:29.482Z,15.41
2023-08-07T09:22:56.035Z,15.22
2023-08-07T09:25:32.568Z,15.34
2023-08-07T09:27:59.003Z,15.44
2023-08-07T09:30:30.273Z,15.25
2023-08-07T09:33:03.585Z,15.13
2023-08-07T09:35:32.324Z,15.01
2023-08-07T09:37:59.311Z,15.13
2023-08-07T09:40:25.747Z,15.27
2023-08-07T09:42:53.841Z,15.35
2023-08-07T09:45:22.008Z,15.66
2023-08-07T09:47:57.903Z,16.19
2023-08-07T09:50:24.473Z,16.37
2023-08-07T09:52:50.895Z,16.48
2023-08-07T09:55:17.245Z,16.37
2023-08-07T09:57:45.935Z,16.47
2023-08-07T10:00:16.344Z,16.74
2023-08-07T10:02:47.127Z,16.94
2023-08-07T10:05:16.684Z,16.83
2023-08-07T10:07:43.326Z,16.61
2023-08-07T10:10:11.124Z,16.59
2023-08-07T10:12:39.018Z,16.65
2023-08-07T10:15:06.098Z,16.59
2023-08-07T10:17:33.185Z,17.10
2023-08-07T10:19:59.826Z,17.70
2023-08-07T10:22:28.132Z,17.87
2023-08-07T10:24:57.161Z,18.31
2023-08-07T10:27:26.214Z,18.32
2023-08-07T10:29:54.578Z,18.32
2023-08-07T10:32:22.920Z,18.37
2023-08-07T10:34:52.600Z,18.23
2023-08-07T10:37:41.911Z,17.91
2023-08-07T10:40:13.819Z,17.60
2023-08-07T10:43:14.481Z,17.28
2023-08-07T10:45:40.890Z,17.18
2023-08-07T10:48:08.877Z,17.10
2023-08-07T10:50:49.646Z,17.55
2023-08-07T10:53:30.239Z,17.54
2023-08-07T10:55:59.824Z,17.59
2023-08-07T10:58:34.948Z,17.54
2023-08-07T11:01:20.604Z,17.90
2023-08-07T11:04:10.873Z,17.75
2023-08-07T11:06:38.779Z,18.13
2023-08-07T11:09:08.138Z,18.67
2023-08-07T11:11:42.261Z,18.51
2023-08-07T11:14:19.772Z,18.99
2023-08-07T11:16:48.740Z,19.29
2023-08-07T11:19:17.096Z,19.80
2023-08-07T11:21:44.031Z,20.12
2023-08-07T11:24:14.463Z,20.42
2023-08-07T11:26:41.054Z,20.07
2023-08-07T11:29:08.086Z,19.26
2023-08-07T11:31:34.708Z,19.39
2023-08-07T11:34:03.692Z,19.17
2023-08-07T11:36:30.157Z,19.87
2023-08-07T11:38:56.973Z,20.21
2023-08-07T11:41:23.381Z,19.88
2023-08-07T11:43:49.782Z,20.08
2023-08-07T11:46:16.854Z,19.32
2023-08-07T11:48:44.869Z,19.36
2023-08-07T11:51:11.752Z,18.84
2023-08-07T11:53:40.598Z,18.66
2023-08-07T11:56:10.420Z,18.76
2023-08-07T11:58:41.830Z,18.88
2023-08-07T12:01:17.377Z,19.03
2023-08-07T12:04:09.424Z,18.98
2023-08-07T12:06:36.973Z,19.26
2023-08-07T12:09:06.381Z,19.26
2023-08-07T12:11:32.980Z,19.47
2023-08-07T12:14:02.576Z,19.37
2023-08-07T12:16:33.608Z,19.62
2023-08-07T12:19:00.186Z,19.46
2023-08-07T12:21:27.234Z,19.56
2023-08-07T12:23:56.871Z,19.83
2023-08-07T12:26:23.670Z,19.53
2023-08-07T12:28:50.778Z,19.15
2023-08-07T12:31:18.745Z,19.14
2023-08-07T12:33:45.358Z,19.42
2023-08-07T12:38:41.997Z,19.45
2023-08-07T12:41:44.135Z,19.87
2023-08-07T12:43:54.813Z,19.98
2023-08-07T12:48:52.547Z,19.77
2023-08-07T12:51:19.119Z,20.08
2023-08-07T12:53:46.262Z,20.14
2023-08-07T12:56:12.692Z,20.28
2023-08-07T12:58:41.024Z,20.29
2023-08-07T13:01:11.536Z,20.40
2023-08-07T13:03:37.997Z,19.94
2023-08-07T13:06:07.550Z,19.84
2023-08-07T13:08:34.626Z,19.66
2023-08-07T13:11:01.134Z,19.64
2023-08-07T13:13:29.023Z,19.83
2023-08-07T13:15:55.863Z,19.55
2023-08-07T13:18:22.517Z,19.56
2023-08-07T13:20:48.866Z,19.42
2023-08-07T13:23:15.485Z,19.67
2023-08-07T13:25:42.155Z,19.86
2023-08-07T13:28:08.524Z,19.81
2023-08-07T13:30:37.169Z,19.66
2023-08-07T13:33:04.196Z,20.11
2023-08-07T13:35:30.592Z,19.81
2023-08-07T13:37:56.995Z,20.08
2023-08-07T13:40:23.426Z,20.41
2023-08-07T13:42:49.758Z,21.00
2023-08-07T13:45:16.265Z,21.14
2023-08-07T13:47:43.167Z,21.25
2023-08-07T13:50:13.616Z,21.16
2023-08-07T13:52:40.110Z,21.25
2023-08-07T13:55:07.133Z,21.04
2023-08-07T13:57:34.329Z,21.08
2023-08-07T14:00:00.730Z,21.34
2023-08-07T14:02:27.273Z,21.49
2023-08-07T14:04:53.686Z,22.05
2023-08-07T14:07:20.056Z,22.00
2023-08-07T14:09:46.463Z,22.07
2023-08-07T14:12:12.809Z,22.32
2023-08-07T14:14:39.233Z,22.78
2023-08-07T14:17:06.043Z,23.12
2023-08-07T14:19:32.418Z,23.46
2023-08-07T14:21:58.854Z,23.02
2023-08-07T14:24:25.270Z,23.08
2023-08-07T14:26:51.667Z,22.43
2023-08-07T14:29:18.119Z,22.09
2023-08-07T14:31:44.489Z,22.09
2023-08-07T14:34:10.839Z,21.88
2023-08-07T14:36:37.867Z,21.44
2023-08-07T14:39:04.336Z,21.04
2023-08-07T14:41:30.732Z,20.99
2023-08-07T14:43:57.455Z,21.02
2023-08-07T14:46:24.765Z,21.07
2023-08-07T14:48:51.181Z,21.16
2023-08-07T14:51:17.581Z,21.33
2023-08-07T14:53:43.919Z,21.10
2023-08-07T14:56:10.305Z,20.76
2023-08-07T14:58:36.651Z,20.83
2023-08-07T15:01:03.092Z,21.32
2023-08-07T15:03:29.554Z,21.46
2023-08-07T15:05:55.991Z,21.70
2023-08-07T15:08:22.377Z,21.57
2023-08-07T15:10:48.777Z,21.66
2023-08-07T15:13:15.156Z,21.94
2023-08-07T15:15:41.504Z,22.24
2023-08-07T15:18:07.919Z,22.50
2023-08-07T15:20:37.334Z,22.74
2023-08-07T15:23:04.404Z,22.64
2023-08-07T15:25:30.793Z,22.38
2023-08-07T15:28:01.106Z,22.94
2023-08-07T15:30:29.995Z,23.10
2023-08-07T15:32:57.180Z,23.17
2023-08-07T15:35:23.598Z,23.68
2023-08-07T15:37:49.987Z,23.00
2023-08-07T15:40:16.403Z,23.11
2023-08-07T15:42:46.691Z,23.26
2023-08-07T15:45:14.015Z,22.84
2023-08-07T15:47:40.515Z,22.28
2023-08-07T15:50:07.560Z,22.17
2023-08-07T15:52:33.974Z,22.16
2023-08-07T15:55:00.389Z,22.37
2023-08-07T15:57:27.891Z,22.30
2023-08-07T15:59:54.229Z,21.70
2023-08-07T16:02:20.591Z,21.55
2023-08-07T16:04:46.997Z,21.63
2023-08-07T16:07:13.442Z,21.34
2023-08-07T16:09:39.776Z,20.91
2023-08-07T16:12:06.419Z,20.67
2023-08-07T16:14:35.832Z,20.55
2023-08-07T16:17:03.634Z,20.31
2023-08-07T16:19:30.026Z,20.44
2023-08-07T16:21:56.400Z,20.77
2023-08-07T16:24:22.808Z,21.21
2023-08-07T16:26:49.147Z,21.72
2023-08-07T16:29:15.516Z,21.81
2023-08-07T16:31:41.945Z,21.75
2023-08-07T16:34:09.274Z,21.67
2023-08-07T16:36:36.655Z,21.73
2023-08-07T16:39:03.497Z,22.06
2023-08-07T16:41:29.978Z,22.11
2023-08-07T16:43:56.460Z,22.34
2023-08-07T16:46:22.926Z,22.22
2023-08-07T16:48:49.361Z,21.81
2023-08-07T16:51:16.472Z,21.27
2023-08-07T16:53:44.178Z,20.82
2023-08-07T16:56:12.773Z,20.65
2023-08-07T16:58:41.012Z,20.85
2023-08-07T17:01:08.163Z,21.07
2023-08-07T17:03:34.654Z,21.31
2023-08-07T17:06:01.086Z,21.23
2023-08-07T17:08:27.434Z,21.13
2023-08-07T17:10:53.822Z,20.96
2023-08-07T17:13:20.868Z,20.89
2023-08-07T17:15:47.466Z,20.85
2023-08-07T17:18:16.266Z,20.75
2023-08-07T17:20:42.654Z,20.43
2023-08-07T17:23:09.126Z,20.18
2023-08-07T17:25:35.508Z,19.90
2023-08-07T17:28:02.017Z,19.99
2023-08-07T17:30:28.452Z,19.95
2023-08-07T17:32:54.976Z,19.86
2023-08-07T17:35:22.725Z,19.69
2023-08-07T17:37:50.194Z,19.52
2023-08-07T17:40:16.953Z,19.40
2023-08-07T17:42:43.346Z,19.44
2023-08-07T17:45:09.953Z,19.47
2023-08-07T17:47:36.439Z,19.43
2023-08-07T17:50:03.574Z,19.37
2023-08-07T17:52:30.725Z,19.37
2023-08-07T17:54:57.178Z,19.37
2023-08-07T17:57:23.622Z,19.29
2023-08-07T17:59:51.834Z,19.20
2023-08-07T18:02:18.151Z,19.03
2023-08-07T18:04:44.585Z,18.90
2023-08-07T18:07:10.948Z,18.66
2023-08-07T18:09:37.371Z,18.48
2023-08-07T18:12:04.564Z,18.40
2023-08-07T18:14:30.926Z,18.20
2023-08-07T18:16:57.446Z,18.10
2023-08-07T18:19:23.980Z,17.89
2023-08-07T18:21:50.764Z,17.69
2023-08-07T18:24:18.948Z,17.57
2023-08-07T18:26:45.724Z,17.40
2023-08-07T18:29:16.627Z,17.20
2023-08-07T18:31:43.004Z,17.06
2023-08-07T18:34:10.208Z,16.94
2023-08-07T18:36:39.337Z,16.85
2023-08-07T18:39:06.462Z,16.99
2023-08-07T18:41:33.528Z,17.00
2023-08-07T18:44:01.812Z,17.05
2023-08-07T18:46:28.293Z,17.04
2023-08-07T18:48:55.485Z,17.04
2023-08-07T18:51:22.425Z,16.94
2023-08-07T18:53:48.792Z,16.87
2023-08-07T18:56:15.329Z,16.74
2023-08-07T18:58:43.116Z,16.84
2023-08-07T19:01:09.610Z,16.81
2023-08-07T19:03:36.100Z,16.76
2023-08-07T19:06:06.139Z,16.72
2023-08-07T19:08:34.550Z,16.70
2023-08-07T19:11:01.350Z,16.63
2023-08-07T19:13:27.840Z,16.55
2023-08-07T19:15:56.212Z,16.45
2023-08-07T19:18:23.086Z,16.46
2023-08-07T19:20:49.558Z,16.46
2023-08-07T19:23:15.967Z,16.43
2023-08-07T19:25:42.688Z,16.40
2023-08-07T19:28:09.331Z,16.34
2023-08-07T19:30:36.627Z,16.28
2023-08-07T19:33:03.140Z,16.25
2023-08-07T19:35:29.492Z,16.23
2023-08-07T19:37:55.851Z,16.20
2023-08-07T19:40:25.827Z,16.19
2023-08-07T19:42:52.726Z,16.32
2023-08-07T19:45:19.283Z,16.21
2023-08-07T19:47:50.560Z,16.21
2023-08-07T19:50:17.421Z,16.18
2023-08-07T19:52:43.798Z,16.14
2023-08-07T19:55:10.747Z,16.05
2023-08-07T19:57:38.709Z,15.99
2023-08-07T20:00:06.422Z,15.90
2023-08-07T20:02:34.128Z,15.86
2023-08-07T20:05:00.506Z,15.81
2023-08-07T20:07:26.857Z,15.82
2023-08-07T20:09:53.235Z,15.81
2023-08-07T20:12:21.683Z,15.79
2023-08-07T20:14:48.295Z,15.82
2023-08-07T20:17:14.810Z,15.82
2023-08-07T20:19:41.574Z,15.79
2023-08-07T20:22:07.974Z,15.74
2023-08-07T20:24:34.339Z,15.71
2023-08-07T20:27:01.024Z,15.69
2023-08-07T20:29:28.377Z,15.61
2023-08-07T20:31:54.811Z,15.52
2023-08-07T20:34:21.219Z,15.40
2023-08-07T20:36:47.757Z,15.15
2023-08-07T20:39:14.740Z,15.10
2023-08-07T20:41:41.134Z,14.94
2023-08-07T20:44:07.566Z,14.79
2023-08-07T20:46:34.085Z,14.68
2023-08-07T20:49:00.515Z,14.54
2023-08-07T20:51:26.982Z,14.38
2023-08-07T20:53:53.421Z,14.44
2023-08-07T20:56:19.871Z,14.35
2023-08-07T20:58:46.410Z,14.40
2023-08-07T21:01:12.859Z,14.45
2023-08-07T21:03:39.209Z,14.48
2023-08-07T21:06:05.599Z,14.63
2023-08-07T21:08:31.943Z,14.79
2023-08-07T21:10:59.355Z,15.08
2023-08-07T21:13:25.771Z,15.17
2023-08-07T21:15:52.195Z,15.17
2023-08-07T21:18:18.721Z,15.29
2023-08-07T21:20:45.208Z,15.43
2023-08-07T21:23:13.501Z,15.50
2023-08-07T21:25:40.114Z,15.51
2023-08-07T21:28:06.568Z,15.56
2023-08-07T21:30:33.065Z,15.57
2023-08-07T21:32:59.496Z,15.59
2023-08-07T21:35:26.799Z,15.60
2023-08-07T21:37:53.846Z,15.58
2023-08-07T21:40:23.151Z,15.48
2023-08-07T21:42:49.471Z,15.47
2023-08-07T21:45:15.984Z,15.44
2023-08-07T21:47:44.353Z,15.29
2023-08-07T21:50:13.222Z,15.12
2023-08-07T21:52:39.654Z,15.00
2023-08-07T21:55:06.584Z,14.95
2023-08-07T21:57:33.981Z,14.96
2023-08-07T22:00:00.470Z,15.00
2023-08-07T22:02:27.203Z,15.09
2023-08-07T22:04:53.725Z,15.11
2023-08-07T22:07:20.062Z,15.13
2023-08-07T22:09:46.426Z,15.09
2023-08-07T22:12:12.775Z,15.08
2023-08-07T22:14:39.137Z,14.97
2023-08-07T22:17:05.713Z,14.92
2023-08-07T22:19:32.123Z,14.83
2023-08-07T22:21:58.662Z,14.70
2023-08-07T22:24:25.230Z,14.59
2023-08-07T22:26:51.648Z,14.42
2023-08-07T22:29:18.041Z,14.25
2023-08-07T22:31:44.435Z,14.18
2023-08-07T22:34:10.816Z,14.14
2023-08-07T22:36:37.253Z,14.13
2023-08-07T22:39:03.805Z,14.19
2023-08-07T22:41:33.279Z,14.18
2023-08-07T22:44:00.835Z,14.29
2023-08-07T22:46:27.631Z,14.43
2023-08-07T22:48:54.276Z,14.38
2023-08-07T22:51:20.607Z,14.45
2023-08-07T22:53:46.969Z,14.42
2023-08-07T22:56:13.393Z,14.47
2023-08-07T22:58:39.720Z,14.46
2023-08-07T23:01:06.172Z,14.48
2023-08-07T23:03:32.575Z,14.44
2023-08-07T23:05:58.982Z,14.41
2023-08-07T23:08:25.452Z,14.34
2023-08-07T23:10:54.029Z,14.16
2023-08-07T23:13:20.377Z,14.10
2023-08-07T23:15:47.934Z,14.05
2023-08-07T23:18:14.387Z,14.01
2023-08-07T23:20:40.780Z,13.94
2023-08-07T23:23:07.135Z,13.76
2023-08-07T23:25:33.499Z,13.70
2023-08-07T23:27:59.828Z,13.62
2023-08-07T23:30:26.212Z,13.57
2023-08-07T23:32:52.592Z,13.44
2023-08-07T23:35:19.085Z,13.41
2023-08-07T23:37:45.472Z,13.40
2023-08-07T23:40:12.272Z,13.37
2023-08-07T23:42:38.638Z,13.56
2023-08-07T23:45:05.461Z,13.56
2023-08-07T23:47:31.864Z,13.71
2023-08-07T23:49:58.366Z,13.74
2023-08-07T23:52:24.789Z,13.71
2023-08-07T23:54:51.127Z,13.69
2023-08-07T23:57:17.526Z,13.62
2023-08-07T23:59:43.926Z,13.56
